Time;durP1;ratioP1;P1;durP2;ratioP2;P2;SDS_P1;SDS_P2;PMS_P1;PMS_P2;Temp;Humidity;BMP_temperature;BMP_pressure;BME280_temperature;BME280_humidity;BME280_pressure;Samples;Min_cycle;Max_cycle;Signal;HPM_P1;HPM_P2
2020/12/16 10:03:40;;;;;;;13.05;10.35;;;;;;;16.24;53.43;99056.00;5111560;27;20361;-84
2020/12/16 10:06:11;;;;;;;14.52;10.05;;;;;;;16.11;53.15;99051.22;5111379;28;20032;-84
2020/12/16 10:08:36;;;;;;;11.75;9.50;;;;;;;15.59;53.50;99053.00;5111369;28;20016;-83
2020/12/16 10:11:01;;;;;;;14.25;10.18;;;;;;;15.78;53.86;99049.81;5110080;28;20028;-83
2020/12/16 10:13:27;;;;;;;15.60;10.02;;;;;;;14.55;56.99;99058.94;5112126;28;20016;-84
2020/12/16 10:15:52;;;;;;;11.77;9.35;;;;;;;13.41;60.66;99057.69;5108756;22;20042;-82
2020/12/16 10:18:17;;;;;;;14.60;10.63;;;;;;;11.96;65.65;99059.09;5028440;28;20083;-82
2020/12/16 10:20:43;;;;;;;14.80;10.65;;;;;;;12.58;65.18;99062.19;5028026;28;20032;-82
2020/12/16 10:23:08;;;;;;;16.77;11.63;;;;;;;13.28;63.50;99054.50;5027969;28;20036;-82
2020/12/16 10:25:34;;;;;;;15.00;11.07;;;;;;;12.85;64.32;99052.03;5027826;28;20032;-82
2020/12/16 10:27:59;;;;;;;17.85;12.32;;;;;;;11.54;68.79;99051.19;5028422;28;20041;-81
2020/12/16 10:30:26;;;;;;;18.40;11.55;;;;;;;11.63;69.34;99044.97;5027908;28;20073;-81
2020/12/16 10:32:53;;;;;;;15.35;11.73;;;;;;;13.01;64.82;99037.81;5020035;28;20046;-80
2020/12/16 10:35:18;;;;;;;18.08;11.18;;;;;;;13.85;61.66;99032.22;4988530;28;20022;-81
2020/12/16 10:37:45;;;;;;;16.50;11.93;;;;;;;15.55;56.98;99030.50;4989070;28;20026;-81
2020/12/16 10:40:11;;;;;;;20.05;14.10;;;;;;;16.40;53.53;99031.00;4988493;28;20035;-81
2020/12/16 10:42:37;;;;;;;22.95;15.27;;;;;;;16.79;51.70;99033.03;4988478;28;20452;-70
2020/12/16 10:45:04;;;;;;;22.65;15.45;;;;;;;15.58;55.65;99033.03;4987133;28;20022;-72
2020/12/16 10:47:29;;;;;;;25.50;16.20;;;;;;;15.05;57.31;99030.44;4983377;28;20436;-71
2020/12/16 10:49:54;;;;;;;25.27;16.73;;;;;;;14.83;57.68;99032.00;4985710;28;20033;-82
2020/12/16 10:52:20;;;;;;;19.13;14.23;;;;;;;13.30;63.26;99029.31;4972227;28;20020;-69
2020/12/16 10:54:45;;;;;;;22.70;13.93;;;;;;;12.74;66.03;99028.88;4987989;28;20472;-70
2020/12/16 10:57:11;;;;;;;22.85;14.77;;;;;;;11.47;70.16;99026.22;4978766;28;20019;-82
2020/12/16 10:59:36;;;;;;;22.13;14.75;;;;;;;11.90;71.26;99017.69;4969800;28;20027;-82
2020/12/16 11:02:01;;;;;;;19.20;13.95;;;;;;;10.92;72.48;99028.84;4983054;28;20038;-69
2020/12/16 11:04:31;;;;;;;21.30;14.27;;;;;;;11.05;74.77;99015.69;4984724;28;20465;-81
2020/12/16 11:06:56;;;;;;;19.88;13.77;;;;;;;10.67;74.23;99010.22;4975444;28;20038;-81
2020/12/16 11:09:23;;;;;;;20.30;13.65;;;;;;;10.64;73.85;99010.28;4977258;28;20114;-81
2020/12/16 11:11:51;;;;;;;21.40;14.50;;;;;;;11.30;72.11;99003.16;4982842;28;20031;-70
2020/12/16 11:14:17;;;;;;;20.52;13.07;;;;;;;13.21;66.40;98992.25;4961918;28;20023;-69
2020/12/16 11:16:44;;;;;;;19.02;11.60;;;;;;;14.74;61.12;98990.56;4969688;28;20019;-82
2020/12/16 11:19:15;;;;;;;19.15;12.43;;;;;;;16.43;54.48;98989.88;4964180;28;20428;-82
2020/12/16 11:21:42;;;;;;;17.38;11.77;;;;;;;17.57;52.33;98986.16;4961767;28;20023;-83
2020/12/16 11:24:10;;;;;;;15.70;10.77;;;;;;;18.23;49.77;98986.75;4971055;28;20049;-82
2020/12/16 11:26:37;;;;;;;17.70;11.82;;;;;;;18.71;47.44;98980.16;4959655;28;20018;-70
2020/12/16 11:29:04;;;;;;;15.93;11.43;;;;;;;18.47;47.56;98989.16;4965181;28;20361;-70
2020/12/16 11:31:29;;;;;;;15.35;11.48;;;;;;;18.71;47.43;98984.53;4966764;28;20440;-70
2020/12/16 11:33:54;;;;;;;16.55;11.18;;;;;;;18.15;47.55;98991.47;4974324;28;20031;-70
2020/12/16 11:36:20;;;;;;;13.23;10.60;;;;;;;18.99;47.11;98992.78;4958386;28;20114;-70
2020/12/16 11:38:45;;;;;;;14.38;10.75;;;;;;;18.93;45.91;98993.06;4967457;28;20050;-70
2020/12/16 11:41:10;;;;;;;10.93;9.35;;;;;;;18.64;47.19;98997.06;4963974;28;20042;-70
2020/12/16 11:43:36;;;;;;;21.23;10.88;;;;;;;19.76;44.33;98984.53;4960675;28;20102;-70
2020/12/16 11:46:01;;;;;;;14.63;10.30;;;;;;;20.75;42.55;98983.59;4951957;28;20093;-71
2020/12/16 11:48:26;;;;;;;15.02;10.77;;;;;;;19.99;44.03;98979.84;4961232;28;20443;-71
2020/12/16 11:50:52;;;;;;;15.85;10.25;;;;;;;20.22;43.57;98984.75;4961661;28;20077;-75
2020/12/16 11:53:17;;;;;;;12.93;9.95;;;;;;;21.35;40.77;98976.69;4974023;28;20014;-72
2020/12/16 11:55:42;;;;;;;13.43;9.95;;;;;;;21.59;41.16;98977.03;4959283;28;20070;-75
2020/12/16 11:58:08;;;;;;;15.15;10.00;;;;;;;20.98;41.50;98976.16;4971351;28;20030;-73
2020/12/16 12:00:33;;;;;;;12.10;10.02;;;;;;;20.72;41.28;98975.84;4969295;28;20039;-73
2020/12/16 12:02:58;;;;;;;11.90;9.40;;;;;;;21.47;40.67;98968.91;4961854;28;20046;-73
2020/12/16 12:05:24;;;;;;;12.13;9.40;;;;;;;20.98;41.59;98965.63;4973824;28;20027;-73
2020/12/16 12:07:49;;;;;;;10.95;8.85;;;;;;;21.20;41.23;98959.97;4959525;28;20158;-73
2020/12/16 12:10:14;;;;;;;12.52;9.05;;;;;;;20.85;41.37;98960.22;4970680;28;20502;-73
2020/12/16 12:12:40;;;;;;;12.38;9.25;;;;;;;20.44;42.88;98963.34;4959280;28;20025;-73
2020/12/16 12:15:05;;;;;;;11.93;9.55;;;;;;;21.30;40.86;98962.00;4965416;28;20081;-73
2020/12/16 12:17:31;;;;;;;9.65;8.40;;;;;;;21.23;41.07;98955.38;4966012;28;20118;-72
2020/12/16 12:19:56;;;;;;;12.90;9.48;;;;;;;21.42;42.34;98954.28;4958515;28;20110;-75
2020/12/16 12:22:21;;;;;;;11.18;8.77;;;;;;;22.10;40.18;98951.91;4969941;28;20027;-71
2020/12/16 12:24:47;;;;;;;13.55;9.13;;;;;;;20.91;41.64;98949.31;4959305;28;20023;-83
2020/12/16 12:27:12;;;;;;;15.88;8.57;;;;;;;18.28;48.71;98962.06;4973336;28;20121;-84
2020/12/16 12:29:38;;;;;;;16.20;9.27;;;;;;;16.97;51.49;98959.03;4960816;28;20027;-75
2020/12/16 12:32:03;;;;;;;13.07;9.70;;;;;;;15.58;56.96;98952.06;4970138;28;20014;-75
2020/12/16 12:34:28;;;;;;;11.80;10.48;;;;;;;14.67;58.74;98952.53;4957393;28;20031;-75
2020/12/16 12:36:54;;;;;;;12.95;10.30;;;;;;;13.93;62.57;98949.53;4965128;28;20019;-75
2020/12/16 12:39:19;;;;;;;15.32;10.77;;;;;;;13.51;64.40;98952.44;4963809;28;20472;-83
2020/12/16 12:41:45;;;;;;;16.45;10.48;;;;;;;13.92;62.71;98939.13;4973313;28;20027;-74
2020/12/16 12:44:11;;;;;;;14.85;10.40;;;;;;;13.56;64.57;98942.75;4957110;28;20027;-75
2020/12/16 12:46:37;;;;;;;18.70;11.25;;;;;;;13.72;64.66;98952.72;4968622;28;20027;-75
2020/12/16 12:49:02;;;;;;;17.85;11.57;;;;;;;13.77;64.76;98945.63;4961727;28;20073;-72
2020/12/16 12:51:28;;;;;;;21.92;11.25;;;;;;;13.42;65.37;98946.59;4972714;28;20568;-83
2020/12/16 12:53:55;;;;;;;16.67;10.45;;;;;;;13.48;65.82;98938.63;4958415;28;20023;-74
2020/12/16 12:56:21;;;;;;;17.63;10.73;;;;;;;13.08;67.10;98932.69;4971909;28;20405;-75
2020/12/16 12:58:47;;;;;;;15.23;9.45;;;;;;;12.98;66.69;98931.22;4966760;28;20050;-74
2020/12/16 13:01:13;;;;;;;14.95;10.65;;;;;;;12.74;68.13;98934.44;4962690;28;20494;-73
2020/12/16 13:03:39;;;;;;;14.25;10.13;;;;;;;12.70;67.37;98938.84;4973381;28;20061;-75
2020/12/16 13:06:07;;;;;;;15.07;10.27;;;;;;;13.09;67.13;98934.41;4957071;28;20047;-75
2020/12/16 13:08:33;;;;;;;12.38;9.23;;;;;;;12.84;66.48;98938.50;4968883;28;20027;-74
2020/12/16 13:10:58;;;;;;;15.88;9.98;;;;;;;12.96;67.97;98935.63;4960836;28;20109;-83
2020/12/16 13:13:24;;;;;;;13.07;9.07;;;;;;;12.89;66.91;98934.06;4961020;28;20035;-71
2020/12/16 13:15:50;;;;;;;15.50;8.98;;;;;;;12.79;67.65;98949.03;4967501;28;20035;-74
2020/12/16 13:18:15;;;;;;;13.02;9.35;;;;;;;12.85;67.63;98932.41;4956508;28;20046;-74
2020/12/16 13:20:41;;;;;;;16.25;9.95;;;;;;;12.93;67.80;98930.50;4967375;28;20066;-74
2020/12/16 13:23:06;;;;;;;15.75;10.18;;;;;;;12.99;67.75;98930.31;4961417;28;20050;-74
2020/12/16 13:25:31;;;;;;;12.50;9.05;;;;;;;13.05;68.06;98930.19;4972301;28;20539;-74
2020/12/16 13:27:56;;;;;;;15.85;10.10;;;;;;;13.06;68.33;98920.63;4957162;28;20424;-74
2020/12/16 13:30:22;;;;;;;14.25;8.60;;;;;;;12.93;66.49;98930.50;4969133;28;20673;-72
2020/12/16 13:32:47;;;;;;;10.55;7.88;;;;;;;12.90;67.29;98930.56;4958859;28;20030;-74
2020/12/16 13:35:12;;;;;;;13.25;8.75;;;;;;;13.05;66.80;98927.59;4963108;28;20135;-73
2020/12/16 13:37:38;;;;;;;14.48;8.68;;;;;;;12.90;67.18;98930.56;4965491;28;20065;-72
2020/12/16 13:40:04;;;;;;;13.75;9.68;;;;;;;13.02;67.36;98930.25;4956182;28;20511;-72
2020/12/16 13:42:29;;;;;;;13.20;8.77;;;;;;;13.09;67.06;98930.94;4969776;28;20154;-72
2020/12/16 13:44:54;;;;;;;13.30;8.82;;;;;;;12.86;67.34;98928.91;4959880;28;20031;-72
2020/12/16 13:47:20;;;;;;;20.10;9.90;;;;;;;13.02;68.83;98919.84;4961912;28;20107;-72
2020/12/16 13:49:45;;;;;;;11.30;8.77;;;;;;;12.81;68.28;98920.38;4955055;28;20472;-72
2020/12/16 13:52:15;;;;;;;12.40;8.35;;;;;;;13.05;68.93;98927.59;4969909;28;20077;-72
2020/12/16 13:54:42;;;;;;;11.70;8.10;;;;;;;12.84;67.61;98925.50;4981960;28;20051;-73
2020/12/16 13:57:07;;;;;;;13.30;8.00;;;;;;;12.89;67.93;98925.41;4960189;28;20037;-72
2020/12/16 13:59:32;;;;;;;12.93;8.07;;;;;;;12.89;67.48;98926.25;4960120;28;20103;-72
2020/12/16 14:01:58;;;;;;;14.85;8.10;;;;;;;12.85;68.24;98922.00;4967885;28;20127;-72
2020/12/16 14:04:23;;;;;;;11.10;7.35;;;;;;;12.92;67.84;98923.59;4955897;28;20026;-72
2020/12/16 14:06:49;;;;;;;11.93;7.97;;;;;;;12.71;68.58;98931.91;4967678;28;20191;-72
2020/12/16 14:09:14;;;;;;;18.65;10.80;;;;;;;12.59;69.00;98926.09;4962334;28;20442;-72
2020/12/16 14:11:39;;;;;;;17.20;9.02;;;;;;;12.34;69.39;98924.97;4977020;28;20395;-72
2020/12/16 14:14:05;;;;;;;16.88;9.07;;;;;;;12.27;70.16;98928.59;4971480;28;20495;-72
2020/12/16 14:16:30;;;;;;;16.98;9.82;;;;;;;12.42;69.62;98938.63;4955860;28;20157;-72
2020/12/16 14:18:55;;;;;;;14.35;8.30;;;;;;;12.24;70.38;98939.91;4970704;28;20026;-72
2020/12/16 14:21:21;;;;;;;13.68;8.00;;;;;;;12.16;70.20;98940.97;4961509;28;20035;-72
2020/12/16 14:23:46;;;;;;;17.90;8.88;;;;;;;12.17;70.26;98942.66;4966110;28;20023;-72
2020/12/16 14:26:13;;;;;;;14.52;8.85;;;;;;;12.09;70.88;98943.72;4954514;28;20031;-72
2020/12/16 14:28:40;;;;;;;13.48;8.80;;;;;;;12.04;71.37;98950.75;4966941;28;20049;-72
2020/12/16 14:31:07;;;;;;;17.15;9.88;;;;;;;11.93;71.78;98951.84;4961001;28;20019;-72
2020/12/16 14:33:35;;;;;;;22.45;11.40;;;;;;;11.75;72.79;98953.06;4959721;28;20027;-72
2020/12/16 14:36:01;;;;;;;14.90;8.27;;;;;;;11.57;72.48;98959.44;4968444;28;20082;-72
2020/12/16 14:38:26;;;;;;;9.38;6.35;;;;;;;11.45;73.10;98963.13;4955583;28;20531;-72
2020/12/16 14:40:52;;;;;;;13.15;8.02;;;;;;;11.28;73.95;98966.03;4965242;28;20023;-72
2020/12/16 14:43:17;;;;;;;16.20;9.20;;;;;;;11.17;74.34;98967.06;4962016;28;20114;-72
2020/12/16 14:45:43;;;;;;;24.90;13.35;;;;;;;11.11;74.23;98964.59;4958338;28;20077;-72
2020/12/16 14:48:08;;;;;;;27.60;12.85;;;;;;;10.92;75.29;98972.69;4968533;28;20489;-72
2020/12/16 14:50:34;;;;;;;22.73;10.43;;;;;;;10.77;75.55;98972.94;4960009;28;20468;-72
2020/12/16 14:52:59;;;;;;;13.27;7.47;;;;;;;10.62;76.50;98965.41;4982697;28;20026;-72
2020/12/16 14:55:24;;;;;;;9.85;7.32;;;;;;;10.41;77.30;98956.22;4966703;28;20027;-72
2020/12/16 14:57:50;;;;;;;12.48;7.15;;;;;;;10.29;77.63;98949.47;4960948;28;20507;-72
2020/12/16 15:00:16;;;;;;;12.95;7.55;;;;;;;10.04;78.88;98949.75;4970373;28;20110;-72
2020/12/16 15:02:42;;;;;;;12.40;7.13;;;;;;;9.91;79.68;98958.59;4960587;28;20491;-72
2020/12/16 15:05:08;;;;;;;10.98;7.47;;;;;;;9.75;80.65;98957.03;4966323;28;20023;-72
2020/12/16 15:07:33;;;;;;;14.57;8.25;;;;;;;9.73;80.58;98958.78;4966720;28;20038;-72
2020/12/16 15:09:59;;;;;;;13.30;7.30;;;;;;;9.59;81.51;98965.84;4959854;28;20027;-72
2020/12/16 15:12:25;;;;;;;13.32;8.40;;;;;;;9.46;81.85;98960.81;4971409;28;20025;-72
2020/12/16 15:14:51;;;;;;;15.75;8.27;;;;;;;9.20;82.82;98963.66;4961613;28;20476;-72
2020/12/16 15:17:17;;;;;;;18.85;9.95;;;;;;;9.12;83.40;98973.22;4964920;28;20425;-72
2020/12/16 15:19:42;;;;;;;22.85;9.80;;;;;;;8.95;84.49;98973.38;4967647;28;20057;-72
2020/12/16 15:22:08;;;;;;;33.75;16.08;;;;;;;8.69;85.09;98970.13;4958482;28;20027;-72
2020/12/16 15:24:33;;;;;;;25.77;16.20;;;;;;;8.52;86.16;98975.41;4970567;28;20027;-72
2020/12/16 15:26:59;;;;;;;45.88;23.38;;;;;;;8.44;86.47;98972.88;4962643;28;20023;-72
2020/12/16 15:29:25;;;;;;;38.38;20.40;;;;;;;8.29;87.30;98975.50;4963829;28;20024;-72
2020/12/16 15:31:56;;;;;;;38.42;19.58;;;;;;;8.17;87.31;98972.97;4969575;28;20085;-72
2020/12/16 15:34:23;;;;;;;46.00;22.92;;;;;;;8.18;87.55;98974.72;4958497;28;20030;-81
2020/12/16 15:36:52;;;;;;;53.33;26.90;;;;;;;7.90;88.42;98977.41;4968423;28;20042;-81
2020/12/16 15:39:18;;;;;;;47.95;21.77;;;;;;;7.87;88.63;98980.00;4965065;28;20101;-81
2020/12/16 15:41:49;;;;;;;22.58;13.68;;;;;;;7.79;88.63;98978.34;4960956;28;20110;-81
2020/12/16 15:44:15;;;;;;;19.08;10.07;;;;;;;7.82;88.63;98986.03;4970846;28;20116;-82
2020/12/16 15:46:45;;;;;;;16.90;9.52;;;;;;;7.73;88.80;98986.94;4960095;28;20509;-82
2020/12/16 15:49:10;;;;;;;;;;;;;;;7.67;88.85;98992.13;4965864;28;20468;-82
2020/12/16 15:51:35;;;;;;;19.98;7.90;;;;;;;7.55;89.09;98985.28;4967171;28;20071;-82
2020/12/16 15:54:00;;;;;;;16.02;9.85;;;;;;;7.37;89.10;98983.59;4973943;28;20438;-82
2020/12/16 15:56:26;;;;;;;18.13;9.38;;;;;;;7.25;90.05;98996.47;4958208;28;20034;-82
2020/12/16 15:58:51;;;;;;;14.52;8.88;;;;;;;7.26;89.70;98997.38;4974107;28;20615;-82
2020/12/16 16:01:16;;;;;;;15.82;9.15;;;;;;;7.25;89.93;98991.34;4964030;28;20023;-82
2020/12/16 16:03:43;;;;;;;12.73;8.13;;;;;;;7.22;90.19;99001.66;4967450;28;20034;-81
2020/12/16 16:06:09;;;;;;;29.02;11.05;;;;;;;7.21;90.83;99000.81;4957990;28;20226;-81
2020/12/16 16:08:34;;;;;;;13.38;8.70;;;;;;;7.15;90.44;99005.09;4972675;28;20046;-81
2020/12/16 16:11:02;;;;;;;26.73;10.35;;;;;;;7.33;91.36;99004.22;4966226;28;20027;-81
2020/12/16 16:13:27;;;;;;;20.15;11.02;;;;;;;7.29;90.64;99007.66;4965684;28;20085;-81
2020/12/16 16:15:52;;;;;;;18.17;10.30;;;;;;;7.19;89.65;99009.38;4979670;23;20043;-73
2020/12/16 16:18:18;;;;;;;17.17;8.80;;;;;;;6.84;90.60;99015.41;4973612;28;20027;-72
2020/12/16 16:20:43;;;;;;;15.35;10.05;;;;;;;6.67;91.08;99025.69;4968332;28;20031;-72
2020/12/16 16:23:08;;;;;;;15.95;10.88;;;;;;;6.80;91.58;99021.41;4962792;28;20105;-72
2020/12/16 16:25:34;;;;;;;16.10;11.63;;;;;;;6.77;91.56;99017.94;4973409;28;20117;-73
2020/12/16 16:27:59;;;;;;;14.55;10.50;;;;;;;6.78;91.85;99020.56;4973360;28;20023;-72
2020/12/16 16:30:26;;;;;;;17.67;10.68;;;;;;;6.69;91.30;99021.41;4973550;28;20034;-72
2020/12/16 16:32:51;;;;;;;12.55;8.95;;;;;;;6.57;91.42;99020.50;4973146;28;20380;-72
2020/12/16 16:35:17;;;;;;;14.63;8.93;;;;;;;6.49;91.63;99012.78;4973286;28;20029;-72
2020/12/16 16:37:43;;;;;;;18.55;10.40;;;;;;;6.68;91.99;99017.09;4973166;28;20026;-72
2020/12/16 16:40:12;;;;;;;16.20;10.70;;;;;;;6.59;91.07;99023.97;4973358;28;20034;-72
2020/12/16 16:42:37;;;;;;;20.65;12.00;;;;;;;6.56;92.41;99024.78;4972913;28;20484;-73
2020/12/16 16:45:04;;;;;;;26.55;13.98;;;;;;;6.54;92.14;99020.53;4973172;28;20029;-73
2020/12/16 16:47:29;;;;;;;33.00;17.63;;;;;;;6.57;92.40;99020.50;4973134;28;20038;-73
2020/12/16 16:49:54;;;;;;;33.88;16.20;;;;;;;6.61;91.99;99011.94;4972976;28;20153;-73
2020/12/16 16:52:21;;;;;;;34.50;17.52;;;;;;;6.51;91.76;99020.50;4972975;28;20030;-73
2020/12/16 16:54:49;;;;;;;39.42;17.67;;;;;;;6.45;92.16;99016.19;4972794;28;20022;-73
2020/12/16 16:57:18;;;;;;;36.97;18.45;;;;;;;6.40;92.81;99012.75;4972936;28;20049;-73
2020/12/16 16:59:44;;;;;;;39.43;19.67;;;;;;;6.32;93.25;99015.28;4972991;28;20420;-73
2020/12/16 17:02:09;;;;;;;38.90;18.45;;;;;;;6.21;93.68;99022.13;4972764;28;20030;-72
2020/12/16 17:04:35;;;;;;;37.47;16.73;;;;;;;6.12;93.83;99022.09;4972672;28;20101;-73
2020/12/16 17:07:00;;;;;;;41.28;17.10;;;;;;;6.05;93.92;99020.38;4972832;28;20023;-73
2020/12/16 17:09:25;;;;;;;55.58;22.17;;;;;;;6.05;94.08;99030.66;4972909;28;20041;-73
2020/12/16 17:11:51;;;;;;;52.75;21.05;;;;;;;5.93;94.03;99024.59;4972075;28;20023;-73
2020/12/16 17:14:16;;;;;;;58.55;24.50;;;;;;;5.83;94.41;99027.09;4972478;28;20019;-72
2020/12/16 17:16:41;;;;;;;40.80;21.17;;;;;;;5.79;94.48;99027.91;4972428;28;20404;-72
2020/12/16 17:19:07;;;;;;;43.53;23.35;;;;;;;5.74;94.47;99030.47;4972684;28;20023;-72
2020/12/16 17:21:37;;;;;;;50.22;22.25;;;;;;;5.69;94.51;99024.44;4972536;28;20034;-72
2020/12/16 17:24:02;;;;;;;54.80;24.63;;;;;;;5.77;94.99;99030.50;4972575;28;20062;-72
2020/12/16 17:26:29;;;;;;;32.55;16.90;;;;;;;5.72;94.58;99031.31;4972201;28;20113;-72
2020/12/16 17:28:55;;;;;;;39.35;19.65;;;;;;;5.65;94.41;99022.69;4972445;28;20023;-72
2020/12/16 17:31:20;;;;;;;38.33;20.80;;;;;;;5.54;94.46;99027.78;4972381;28;20107;-72
2020/12/16 17:33:45;;;;;;;47.20;22.55;;;;;;;5.54;94.78;99017.50;4972314;28;20109;-73
2020/12/16 17:36:11;;;;;;;34.65;18.42;;;;;;;5.45;95.17;99026.84;4970981;28;20026;-73
2020/12/16 17:38:37;;;;;;;34.85;18.33;;;;;;;5.49;95.06;99023.47;4972151;28;20027;-72
2020/12/16 17:41:05;;;;;;;30.58;17.02;;;;;;;5.55;95.32;99015.78;4972325;28;20023;-72
2020/12/16 17:43:31;;;;;;;41.38;17.98;;;;;;;5.52;95.67;99013.22;4971917;28;20037;-73
2020/12/16 17:45:56;;;;;;;31.67;17.05;;;;;;;5.54;95.85;99016.66;4972162;28;20022;-73
2020/12/16 17:48:21;;;;;;;25.08;15.55;;;;;;;5.61;95.87;99018.41;4971961;28;20030;-73
2020/12/16 17:50:46;;;;;;;33.58;17.73;;;;;;;5.60;95.92;99016.66;4972176;28;20514;-73
2020/12/16 17:53:12;;;;;;;32.97;17.63;;;;;;;5.59;96.03;99025.25;4971956;28;20468;-72
2020/12/16 17:55:38;;;;;;;28.77;17.38;;;;;;;5.54;96.11;99026.94;4972005;28;20487;-73
2020/12/16 17:58:03;;;;;;;27.98;16.98;;;;;;;5.54;96.27;99024.34;4986968;28;20023;-72
2020/12/16 18:00:29;;;;;;;28.23;15.95;;;;;;;5.55;95.88;99028.63;4972123;28;20014;-73
2020/12/16 18:02:54;;;;;;;30.90;16.70;;;;;;;5.51;96.09;99042.31;4971791;28;20018;-72
2020/12/16 18:05:19;;;;;;;33.40;16.85;;;;;;;5.50;96.24;99045.75;4971891;28;20038;-73
2020/12/16 18:07:46;;;;;;;26.88;16.20;;;;;;;5.47;96.08;99043.16;4972174;28;20077;-73
2020/12/16 18:10:11;;;;;;;50.60;25.73;;;;;;;5.42;95.91;99048.28;4971996;28;20030;-73
2020/12/16 18:12:38;;;;;;;30.88;16.65;;;;;;;5.32;96.34;99047.34;4972007;28;20026;-73
2020/12/16 18:15:03;;;;;;;25.70;15.07;;;;;;;5.30;96.12;99053.31;4971916;28;20054;-73
2020/12/16 18:17:29;;;;;;;24.85;15.85;;;;;;;5.27;96.41;99053.28;4971949;28;20061;-73
2020/12/16 18:19:54;;;;;;;31.30;16.90;;;;;;;5.24;96.61;99054.13;4986950;28;20042;-73
2020/12/16 18:22:19;;;;;;;27.98;15.90;;;;;;;5.21;96.63;99058.38;4971588;28;20037;-73
2020/12/16 18:24:47;;;;;;;21.67;13.95;;;;;;;5.25;96.61;99050.69;4974512;28;20371;-73
2020/12/16 18:27:13;;;;;;;23.05;15.52;;;;;;;5.22;96.57;99050.69;4975570;28;20029;-73
2020/12/16 18:29:38;;;;;;;28.33;16.00;;;;;;;5.21;96.75;99048.94;4975755;28;20023;-72
2020/12/16 18:32:06;;;;;;;29.88;16.40;;;;;;;5.14;96.55;99052.34;4975590;28;20027;-72
2020/12/16 18:34:32;;;;;;;28.08;16.75;;;;;;;5.11;96.54;99058.28;4975569;28;20057;-73
2020/12/16 18:36:57;;;;;;;38.47;17.20;;;;;;;5.11;96.52;99052.31;4975347;28;20074;-72
2020/12/16 18:39:22;;;;;;;35.53;18.92;;;;;;;5.14;96.79;99057.47;4975542;28;20102;-72
2020/12/16 18:41:48;;;;;;;32.75;17.67;;;;;;;5.06;97.31;99059.09;4975466;28;20121;-72
2020/12/16 18:44:13;;;;;;;35.92;19.67;;;;;;;5.03;97.38;99061.63;4975502;28;20154;-73
2020/12/16 18:46:39;;;;;;;35.55;21.10;;;;;;;4.96;97.24;99068.44;4975656;28;20105;-73
2020/12/16 18:49:05;;;;;;;39.45;21.63;;;;;;;4.86;97.41;99072.63;4975236;28;20476;-73
2020/12/16 18:51:32;;;;;;;38.88;21.65;;;;;;;4.84;97.33;99069.19;4982671;28;20019;-73
2020/12/16 18:53:58;;;;;;;30.40;18.60;;;;;;;4.79;97.47;99076.00;4974891;28;20031;-73
2020/12/16 18:56:23;;;;;;;33.65;19.58;;;;;;;4.81;97.74;99074.28;4975158;28;20076;-73
2020/12/16 18:58:48;;;;;;;35.60;19.33;;;;;;;4.85;97.89;99073.47;4974925;28;20580;-73
2020/12/16 19:01:14;;;;;;;37.70;19.88;;;;;;;4.82;97.58;99076.00;4975193;28;20049;-73
2020/12/16 19:03:43;;;;;;;34.60;19.45;;;;;;;4.76;97.39;99081.09;4974752;28;20031;-73
2020/12/16 19:06:08;;;;;;;33.53;18.37;;;;;;;4.71;97.60;99082.75;4974923;28;20030;-73
2020/12/16 19:08:34;;;;;;;35.38;18.35;;;;;;;4.76;97.78;99088.78;4974962;28;20050;-74
2020/12/16 19:10:59;;;;;;;33.30;18.58;;;;;;;4.73;97.52;99077.63;4974850;28;20121;-74
2020/12/16 19:13:24;;;;;;;26.35;16.90;;;;;;;4.70;97.40;99085.31;4974778;28;20019;-74
2020/12/16 19:15:50;;;;;;;27.50;17.60;;;;;;;4.66;97.32;99078.41;4974530;28;20110;-74
2020/12/16 19:18:15;;;;;;;28.77;16.25;;;;;;;4.63;97.58;99071.53;4974772;28;20022;-74
2020/12/16 19:20:43;;;;;;;45.97;26.25;;;;;;;4.60;97.62;99079.22;4974790;28;20023;-74
2020/12/16 19:23:09;;;;;;;32.72;21.60;;;;;;;4.52;97.58;99080.84;4973349;28;20496;-74
2020/12/16 19:25:35;;;;;;;34.63;19.75;;;;;;;4.47;97.58;99080.78;4974457;28;20029;-74
2020/12/16 19:28:00;;;;;;;34.15;19.25;;;;;;;4.44;97.50;99087.56;4974592;28;20022;-74
2020/12/16 19:30:26;;;;;;;31.73;20.52;;;;;;;4.41;97.70;99085.00;4974682;28;20042;-74
2020/12/16 19:32:52;;;;;;;35.03;20.70;;;;;;;4.31;97.72;99087.44;4974405;28;20098;-74
2020/12/16 19:35:17;;;;;;;31.40;19.25;;;;;;;4.27;98.01;99088.25;4974053;28;20027;-74
2020/12/16 19:37:43;;;;;;;33.80;20.45;;;;;;;4.34;98.14;99092.59;4974282;28;20027;-74
2020/12/16 19:40:12;;;;;;;34.25;19.20;;;;;;;4.36;98.19;99092.63;4974450;28;20026;-74
2020/12/16 19:42:40;;;;;;;36.80;19.38;;;;;;;4.34;98.20;99095.16;4974102;28;20110;-74
2020/12/16 19:45:08;;;;;;;38.10;19.60;;;;;;;4.33;98.09;99090.88;4974364;28;20019;-74
2020/12/16 19:47:34;;;;;;;31.95;19.50;;;;;;;4.32;98.11;99093.44;4974131;28;20033;-74
2020/12/16 19:49:59;;;;;;;30.95;19.42;;;;;;;4.29;97.99;99089.09;4989272;28;20026;-74
2020/12/16 19:52:24;;;;;;;35.58;20.23;;;;;;;4.22;97.89;99092.47;4974036;28;20026;-74
2020/12/16 19:54:50;;;;;;;35.90;20.40;;;;;;;4.19;97.99;99097.53;4974126;28;20018;-74
2020/12/16 19:57:15;;;;;;;29.65;19.20;;;;;;;4.15;97.83;99090.66;4989031;28;20034;-74
2020/12/16 19:59:40;;;;;;;36.42;20.65;;;;;;;4.07;98.12;99102.53;4974039;28;20050;-74
2020/12/16 20:02:06;;;;;;;36.72;20.70;;;;;;;4.03;98.19;99105.88;4973930;28;20162;-74
2020/12/16 20:04:33;;;;;;;36.08;21.15;;;;;;;4.03;97.83;99111.88;4973800;28;20487;-74
2020/12/16 20:07:01;;;;;;;36.13;21.30;;;;;;;4.00;98.22;99122.06;4972579;28;20026;-74
2020/12/16 20:09:26;;;;;;;33.97;20.63;;;;;;;4.00;98.21;99111.81;4988701;28;20117;-75
2020/12/16 20:11:52;;;;;;;36.55;20.95;;;;;;;3.97;98.26;99110.94;4973854;28;20084;-74
2020/12/16 20:14:18;;;;;;;37.13;19.75;;;;;;;3.99;98.27;99112.66;4973590;28;20130;-74
2020/12/16 20:16:54;;;;;;;33.53;20.83;;;;;;;3.98;98.49;99115.22;4973747;28;20499;-74
2020/12/16 20:19:21;;;;;;;35.15;21.40;;;;;;;3.95;98.58;99120.28;4973813;28;20034;-74
2020/12/16 20:21:50;;;;;;;37.10;21.05;;;;;;;3.93;98.56;99124.53;4973777;28;20110;-74
2020/12/16 20:24:16;;;;;;;40.25;21.77;;;;;;;3.95;98.74;99122.84;4973549;28;20027;-74
2020/12/16 20:26:41;;;;;;;37.13;20.50;;;;;;;3.95;98.52;99122.84;4973347;28;20047;-74
2020/12/16 20:29:07;;;;;;;33.22;20.73;;;;;;;3.90;98.46;99119.38;4973690;28;20097;-74
2020/12/16 20:31:33;;;;;;;36.88;21.80;;;;;;;3.90;98.44;99124.50;4973400;28;20023;-74
2020/12/16 20:33:58;;;;;;;34.05;20.85;;;;;;;3.83;98.54;99124.41;4973325;28;20053;-74
2020/12/16 20:36:28;;;;;;;40.03;21.83;;;;;;;3.82;98.48;99122.69;4973170;28;20028;-74
2020/12/16 20:38:54;;;;;;;38.80;22.30;;;;;;;3.80;98.35;99124.34;4973313;28;20369;-74
2020/12/16 20:41:19;;;;;;;34.25;20.27;;;;;;;3.84;98.28;99126.13;4973322;28;20030;-74
2020/12/16 20:43:45;;;;;;;37.58;21.55;;;;;;;3.84;98.18;99131.25;4972659;28;20031;-74
2020/12/16 20:46:10;;;;;;;45.00;21.95;;;;;;;3.79;97.99;99137.16;4972182;28;20030;-74
2020/12/16 20:48:39;;;;;;;40.38;22.33;;;;;;;3.73;98.09;99144.75;4972963;28;20129;-74
2020/12/16 20:51:04;;;;;;;37.20;21.48;;;;;;;3.75;98.29;99133.69;4973388;28;20031;-74
2020/12/16 20:53:30;;;;;;;41.97;22.52;;;;;;;3.66;98.40;99138.66;4973243;28;20030;-74
2020/12/16 20:55:55;;;;;;;40.58;22.77;;;;;;;3.63;98.20;99141.19;4972941;28;20448;-74
2020/12/16 20:58:20;;;;;;;40.15;22.60;;;;;;;3.56;98.04;99135.09;4973073;28;20090;-74
2020/12/16 21:00:46;;;;;;;38.63;22.38;;;;;;;3.52;98.07;99138.44;4988207;28;20102;-74
2020/12/16 21:03:11;;;;;;;35.70;23.25;;;;;;;3.43;97.97;99137.44;4972740;28;20022;-74
2020/12/16 21:05:36;;;;;;;47.28;24.65;;;;;;;3.39;98.22;99130.56;4972794;28;20503;-74
2020/12/16 21:08:02;;;;;;;42.33;24.85;;;;;;;3.33;98.45;99127.03;4972819;28;20029;-74
2020/12/16 21:10:27;;;;;;;49.28;26.30;;;;;;;3.28;98.30;99133.78;4972669;28;20118;-74
2020/12/16 21:12:53;;;;;;;47.38;26.73;;;;;;;3.29;98.47;99137.22;4971364;28;20018;-74
2020/12/16 21:15:18;;;;;;;45.42;24.27;;;;;;;3.21;98.55;99137.09;4972469;28;20077;-76
2020/12/16 21:17:43;;;;;;;47.72;26.95;;;;;;;3.11;98.39;99132.66;4972617;28;20034;-76
2020/12/16 21:20:09;;;;;;;47.53;25.65;;;;;;;3.03;98.57;99142.75;4972494;28;20054;-75